CheckWX is a tool to help pilots better visualize weather data.  It is not intended as a substitute for an official pre-flight weather briefing.

08:52:31 UTC

LATI METAR
Tirana International Mother Teresa Airport
Tirana, Albania
Current

33 mins ago

LATI 180820Z VRB03KT CAVOK 28/20 Q1014 NOSIG
Observed
Jun-18 @ 08:20 UTC
Wind
  • Variable at 3 KTS
Visibility
10,000+ meters
Flight Rules
VFR
Cloud Levels
  • Clear skies
Temperature
28°C / 82°F
Dewpoint
20°C / 68°F
Heat Index
29°C / 85°F
Humidity
62%
Altimeter
29.94" Hg
Pressure
1013.92 hPa
Previous

1 hour ago

LATI 180750Z 32003KT 250V010 CAVOK 28/20 Q1014 NOSIG
Observed
Jun-18 @ 07:50 UTC
Wind
  • 320° at 3 KTS
Visibility
10,000+ meters
Flight Rules
VFR
Cloud Levels
  • Clear skies
Temperature
28°C / 82°F
Dewpoint
20°C / 68°F
Heat Index
29°C / 85°F
Humidity
62%
Altimeter
29.94" Hg
Pressure
1013.92 hPa
Previous

2 hours ago

LATI 180720Z 00000KT CAVOK 28/18 Q1014 NOSIG
Observed
Jun-18 @ 07:20 UTC
Visibility
10,000+ meters
Flight Rules
VFR
Cloud Levels
  • Clear skies
Temperature
28°C / 82°F
Dewpoint
18°C / 64°F
Heat Index
29°C / 84°F
Humidity
55%
Altimeter
29.94" Hg
Pressure
1013.92 hPa